Map

Track Data

SID SEASON NUMBER BASIN SUBBASIN NAME ISO_TIME NATURE LAT LON WMO_WIND WMO_PRES WMO_AGENCY TRACK_TYPE DIST2LAND LANDFALL IFLAG USA_AGENCY USA_ATCF_ID USA_LAT USA_LON USA_RECORD USA_STATUS USA_WIND USA_PRES USA_SSHS USA_R34_NE USA_R34_SE USA_R34_SW USA_R34_NW USA_R50_NE USA_R50_SE USA_R50_SW USA_R50_NW USA_R64_NE USA_R64_SE USA_R64_SW USA_R64_NW USA_POCI USA_ROCI USA_RMW USA_EYE TOKYO_LAT TOKYO_LON TOKYO_GRADE TOKYO_WIND TOKYO_PRES TOKYO_R50_DIR TOKYO_R50_LONG TOKYO_R50_SHORT TOKYO_R30_DIR TOKYO_R30_LONG TOKYO_R30_SHORT TOKYO_LAND CMA_LAT CMA_LON CMA_CAT CMA_WIND CMA_PRES HKO_LAT HKO_LON HKO_CAT HKO_WIND HKO_PRES NEWDELHI_LAT NEWDELHI_LON NEWDELHI_GRADE NEWDELHI_WIND NEWDELHI_PRES NEWDELHI_CI NEWDELHI_DP NEWDELHI_POCI REUNION_LAT REUNION_LON REUNION_TYPE REUNION_WIND REUNION_PRES REUNION_TNUM REUNION_CI REUNION_RMW REUNION_R34_NE REUNION_R34_SE REUNION_R34_SW REUNION_R34_NW REUNION_R50_NE REUNION_R50_SE REUNION_R50_SW REUNION_R50_NW REUNION_R64_NE REUNION_R64_SE REUNION_R64_SW REUNION_R64_NW BOM_LAT BOM_LON BOM_TYPE BOM_WIND BOM_PRES BOM_TNUM BOM_CI BOM_RMW BOM_R34_NE BOM_R34_SE BOM_R34_SW BOM_R34_NW BOM_R50_NE BOM_R50_SE BOM_R50_SW BOM_R50_NW BOM_R64_NE BOM_R64_SE BOM_R64_SW BOM_R64_NW BOM_ROCI BOM_POCI BOM_EYE BOM_POS_METHOD BOM_PRES_METHOD NADI_LAT NADI_LON NADI_CAT NADI_WIND NADI_PRES WELLINGTON_LAT WELLINGTON_LON WELLINGTON_WIND WELLINGTON_PRES DS824_LAT DS824_LON DS824_STAGE DS824_WIND DS824_PRES TD9636_LAT TD9636_LON TD9636_STAGE TD9636_WIND TD9636_PRES TD9635_LAT TD9635_LON TD9635_WIND TD9635_PRES TD9635_ROCI NEUMANN_LAT NEUMANN_LON NEUMANN_CLASS NEUMANN_WIND NEUMANN_PRES MLC_LAT MLC_LON MLC_CLASS MLC_WIND MLC_PRES USA_GUST BOM_GUST BOM_GUST_PER REUNION_GUST REUNION_GUST_PER USA_SEAHGT USA_SEARAD_NE USA_SEARAD_SE USA_SEARAD_SW USA_SEARAD_NW STORM_SPEED STORM_DIR
1900228N19126 1900 16 WP MM NOT_NAMED 1900-08-16 04:00:00 NR 19.0000 126.000 main 395 395 __________O___ -1 19.0000 126.000 7 12 21
1900228N19126 1900 16 WP MM NOT_NAMED 1900-08-16 06:00:00 NR 19.3724 126.145 main 415 425 __________P___ -1 19.3724 126.145 7 12 20
1900228N19126 1900 16 WP MM NOT_NAMED 1900-08-16 09:00:00 NR 19.9163 126.359 main 462 462 __________P___ -1 19.9163 126.359 7 11 20
1900228N19126 1900 16 WP MM NOT_NAMED 1900-08-16 12:00:00 NR 20.4225 126.561 main 503 503 __________P___ -1 20.4225 126.561 7 10 21
1900228N19126 1900 16 WP MM NOT_NAMED 1900-08-16 15:00:00 NR 20.8686 126.745 main 538 547 __________P___ -1 20.8686 126.745 7 9 21
1900228N19126 1900 16 WP MM NOT_NAMED 1900-08-16 16:00:00 NR 21.0000 126.800 main 553 553 __________O___ -1 21.0000 126.800 7 8 22
1900228N19126 1900 16 WP MM NOT_NAMED 1900-08-16 18:00:00 NR 21.2355 126.902 main 574 580 __________P___ -1 21.2355 126.902 7 7 22
1900228N19126 1900 16 WP MM NOT_NAMED 1900-08-16 21:00:00 NR 21.5442 127.041 main 601 599 __________P___ -1 21.5442 127.041 7 7 23
1900228N19126 1900 16 WP MM NOT_NAMED 1900-08-17 00:00:00 NR 21.8412 127.181 main 613 607 __________P___ -1 21.8412 127.181 7 7 24
1900228N19126 1900 16 WP MM NOT_NAMED 1900-08-17 03:00:00 NR 22.1734 127.340 main 607 607 __________P___ -1 22.1734 127.340 7 8 24
1900228N19126 1900 16 WP MM NOT_NAMED 1900-08-17 04:00:00 NR 22.3000 127.400 main 612 607 __________O___ -1 22.3000 127.400 7 9 24
1900228N19126 1900 16 WP MM NOT_NAMED 1900-08-17 06:00:00 NR 22.6045 127.549 main 608 610 __________P___ -1 22.6045 127.549 7 11 24
1900228N19126 1900 16 WP MM NOT_NAMED 1900-08-17 09:00:00 NR 23.1115 127.797 main 619 616 __________P___ -1 23.1115 127.797 7 12 24
1900228N19126 1900 16 WP MM NOT_NAMED 1900-08-17 12:00:00 NR 23.6568 128.060 main 634 631 __________P___ -1 23.6568 128.060 7 12 23
1900228N19126 1900 16 WP MM NOT_NAMED 1900-08-17 15:00:00 NR 24.2152 128.318 main 642 641 __________P___ -1 24.2152 128.318 7 12 23
1900228N19126 1900 16 WP MM NOT_NAMED 1900-08-17 16:00:00 NR 24.4000 128.400 main 649 648 __________O___ -1 24.4000 128.400 7 12 21
1900228N19126 1900 16 WP MM NOT_NAMED 1900-08-17 18:00:00 NR 24.7635 128.554 main 665 662 __________P___ -1 24.7635 128.554 7 12 20
1900228N19126 1900 16 WP MM NOT_NAMED 1900-08-17 21:00:00 NR 25.2954 128.764 main 662 603 __________P___ -1 25.2954 128.764 7 11 19
1900228N19126 1900 16 WP MM NOT_NAMED 1900-08-18 00:00:00 NR 25.8157 128.956 main 603 547 __________P___ -1 25.8157 128.956 7 11 18
1900228N19126 1900 16 WP MM NOT_NAMED 1900-08-18 03:00:00 NR 26.3294 129.140 main 547 523 __________P___ -1 26.3294 129.140 7 11 18
1900228N19126 1900 16 WP MM NOT_NAMED 1900-08-18 04:00:00 NR 26.5000 129.200 main 523 __________O___ -1 26.5000 129.200 4 11 20

Digital Typhoon Data and Search

About IBTrACS Database

This database is a web-friendly format of International Best Track Archive for Climate Stewardship (IBTrACS), a global best track data archive curated by NOAA dating back to 1842.

Updated: 2021-10-08